Time;durP1;ratioP1;P1;durP2;ratioP2;P2;SDS_P1;SDS_P2;PMS_P1;PMS_P2;Temp;Humidity;BMP_temperature;BMP_pressure;BME280_temperature;BME280_humidity;BME280_pressure;Samples;Min_cycle;Max_cycle;Signal;HPM_P1;HPM_P2
2022/06/19 00:01:30;;;;;;;9.32;6.93;;;;;;;22.73;65.63;99526.13;5071876;28;20052;-77
2022/06/19 00:03:58;;;;;;;12.02;7.57;;;;;;;22.69;65.51;99523.31;5071805;28;20052;-77
2022/06/19 00:06:26;;;;;;;10.82;7.47;;;;;;;22.65;65.92;99533.88;5067567;28;20051;-77
2022/06/19 00:08:53;;;;;;;9.93;7.82;;;;;;;22.61;65.95;99520.97;5083094;28;20415;-77
2022/06/19 00:11:23;;;;;;;9.90;7.70;;;;;;;22.60;66.15;99525.84;5091971;28;20063;-77
2022/06/19 00:13:50;;;;;;;8.85;7.78;;;;;;;22.60;66.33;99513.69;5091913;28;20052;-77
2022/06/19 00:16:18;;;;;;;9.23;7.43;;;;;;;22.57;66.22;99515.31;5051992;28;20052;-78
2022/06/19 00:18:45;;;;;;;9.50;7.20;;;;;;;22.51;66.46;99505.66;5070674;28;20055;-78
2022/06/19 00:21:16;;;;;;;9.98;7.38;;;;;;;22.50;66.59;99509.72;5071794;28;20382;-77
2022/06/19 00:23:43;;;;;;;9.20;7.40;;;;;;;22.41;67.05;99492.38;5071237;28;20060;-78
2022/06/19 00:26:11;;;;;;;11.32;7.78;;;;;;;22.37;66.95;99478.22;5071355;28;20048;-77
2022/06/19 00:28:40;;;;;;;13.13;7.68;;;;;;;22.35;67.10;99477.81;5071618;28;20045;-77
2022/06/19 00:31:07;;;;;;;8.70;7.65;;;;;;;22.30;67.18;99466.94;5075282;28;20064;-77
2022/06/19 00:33:35;;;;;;;9.68;6.88;;;;;;;22.28;67.24;99463.72;5074897;28;20052;-77
2022/06/19 00:36:02;;;;;;;9.95;6.90;;;;;;;22.22;67.43;99457.66;5075329;28;20505;-77
2022/06/19 00:38:32;;;;;;;9.95;7.57;;;;;;;22.20;67.56;99445.91;5072156;28;20060;-77
2022/06/19 00:41:00;;;;;;;9.50;7.40;;;;;;;22.17;67.74;99445.94;5074847;28;20052;-77
2022/06/19 00:43:29;;;;;;;10.07;7.30;;;;;;;22.12;67.72;99433.03;5075135;28;20057;-77
2022/06/19 00:46:03;;;;;;;9.80;7.27;;;;;;;22.11;67.82;99439.91;5075215;28;20057;-77
2022/06/19 00:48:33;;;;;;;10.52;7.55;;;;;;;22.08;67.94;99423.72;5072654;28;20052;-77
2022/06/19 00:51:04;;;;;;;8.85;7.70;;;;;;;22.04;68.24;99417.28;5074891;28;20378;-77
2022/06/19 00:53:35;;;;;;;9.98;7.63;;;;;;;22.00;68.40;99420.16;5074759;28;20075;-77
2022/06/19 00:56:03;;;;;;;10.77;7.85;;;;;;;21.95;68.63;99416.97;5074555;28;20408;-76
2022/06/19 00:58:34;;;;;;;8.52;7.25;;;;;;;21.94;68.79;99418.19;5069317;28;20044;-77
2022/06/19 01:01:05;;;;;;;11.50;8.40;;;;;;;21.88;68.95;99417.81;5075897;28;20064;-85
2022/06/19 01:03:38;;;;;;;12.13;8.02;;;;;;;21.89;69.23;99417.41;5075184;28;20048;-85
2022/06/19 01:06:07;;;;;;;10.55;8.05;;;;;;;21.86;69.31;99414.63;5069409;28;20409;-85
2022/06/19 01:08:36;;;;;;;11.02;9.02;;;;;;;21.86;69.44;99437.28;5074711;28;20059;-85
2022/06/19 01:11:05;;;;;;;9.93;8.82;;;;;;;21.81;69.27;99417.88;5094377;28;20062;-85
2022/06/19 01:13:33;;;;;;;13.32;7.90;;;;;;;21.81;69.57;99421.50;5094575;28;20078;-84
2022/06/19 01:16:02;;;;;;;9.87;8.50;;;;;;;21.81;69.65;99418.69;5090971;28;20070;-84
2022/06/19 01:18:32;;;;;;;9.95;8.23;;;;;;;21.81;69.47;99413.00;5074686;28;20056;-85
2022/06/19 01:21:11;;;;;;;9.55;7.43;;;;;;;21.84;69.33;99417.06;5075110;28;20052;-85
2022/06/19 01:23:47;;;;;;;8.57;7.22;;;;;;;21.84;69.44;99400.06;5074743;28;20217;-86
2022/06/19 01:26:19;;;;;;;8.02;7.20;;;;;;;21.82;69.52;99406.13;5084011;28;20075;-85
2022/06/19 01:28:46;;;;;;;8.18;6.60;;;;;;;21.83;69.33;99398.44;5072090;28;20056;-85
2022/06/19 01:31:16;;;;;;;8.95;6.47;;;;;;;21.84;69.32;99400.06;5075039;28;20513;-85
2022/06/19 01:33:47;;;;;;;9.75;6.53;;;;;;;21.83;69.29;99392.75;5074465;28;20053;-84
2022/06/19 01:36:17;;;;;;;6.70;6.05;;;;;;;21.80;69.25;99400.06;5075009;28;20051;-85
2022/06/19 01:38:48;;;;;;;8.15;7.35;;;;;;;21.79;69.63;99395.63;5060521;28;20059;-85
2022/06/19 01:41:23;;;;;;;13.30;7.95;;;;;;;21.76;69.76;99387.16;5054332;28;20057;-85
2022/06/19 01:43:50;;;;;;;8.65;7.80;;;;;;;21.73;69.86;99394.44;5054526;28;20378;-85
2022/06/19 01:46:19;;;;;;;10.50;7.07;;;;;;;21.69;69.88;99414.34;5054908;28;20515;-85
2022/06/19 01:48:47;;;;;;;7.65;6.80;;;;;;;21.64;69.92;99397.75;5067469;28;20048;-84
2022/06/19 01:51:15;;;;;;;8.65;7.05;;;;;;;21.60;69.95;99396.97;5074926;28;20048;-85
2022/06/19 01:53:47;;;;;;;7.78;6.32;;;;;;;21.57;69.84;99394.19;5074661;28;20488;-85
2022/06/19 01:56:15;;;;;;;9.65;6.40;;;;;;;21.53;69.75;99393.41;5074046;28;20057;-85
2022/06/19 01:58:47;;;;;;;7.93;6.00;;;;;;;21.49;69.49;99402.72;5071938;28;20417;-85
2022/06/19 02:01:15;;;;;;;6.90;5.90;;;;;;;21.46;69.63;99391.41;5073117;28;20063;-85
2022/06/19 02:03:45;;;;;;;6.85;6.15;;;;;;;21.42;69.72;99388.63;5067557;28;20090;-85
2022/06/19 02:06:17;;;;;;;6.82;6.07;;;;;;;21.40;69.70;99388.19;5074203;28;20485;-85
2022/06/19 02:08:45;;;;;;;7.60;6.20;;;;;;;21.39;70.10;99380.91;5071594;28;20056;-84
2022/06/19 02:11:15;;;;;;;6.20;5.60;;;;;;;21.35;69.73;99368.00;5074006;28;20049;-85
2022/06/19 02:13:45;;;;;;;7.75;6.95;;;;;;;21.31;69.75;99362.34;5073314;28;20057;-85
2022/06/19 02:16:16;;;;;;;9.98;6.63;;;;;;;21.25;69.97;99364.00;5061975;28;20053;-84
2022/06/19 02:18:47;;;;;;;7.85;7.15;;;;;;;21.20;69.99;99359.56;5053904;28;20059;-86
2022/06/19 02:21:18;;;;;;;10.30;7.72;;;;;;;21.16;70.39;99349.50;5053125;28;20053;-84
2022/06/19 02:23:46;;;;;;;9.93;7.63;;;;;;;21.08;70.72;99346.72;5053540;28;20056;-85
2022/06/19 02:26:14;;;;;;;13.57;9.05;;;;;;;21.05;70.88;99332.56;5054186;28;20049;-84
2022/06/19 02:28:46;;;;;;;9.35;8.30;;;;;;;21.02;70.99;99336.22;5052762;28;20049;-84
2022/06/19 02:31:16;;;;;;;16.10;8.80;;;;;;;20.97;71.35;99328.19;5059853;28;20465;-84
2022/06/19 02:33:46;;;;;;;9.23;8.30;;;;;;;20.94;71.23;99329.81;5073143;28;20056;-86
2022/06/19 02:36:36;;;;;;;10.82;8.90;;;;;;;20.91;71.27;99330.63;5064647;28;20076;-85
2022/06/19 02:39:21;;;;;;;9.90;8.90;;;;;;;20.87;71.48;99332.66;5052797;28;20065;-85
2022/06/19 02:41:58;;;;;;;10.65;9.18;;;;;;;20.86;71.63;99331.88;5053638;28;20048;-84
2022/06/19 02:44:34;;;;;;;11.88;9.63;;;;;;;20.83;71.87;99331.88;5052869;28;20060;-84
2022/06/19 02:47:01;;;;;;;10.45;9.13;;;;;;;20.79;71.80;99323.44;5057418;28;20049;-85
2022/06/19 02:49:29;;;;;;;10.52;8.75;;;;;;;20.76;71.87;99327.06;5072102;28;20477;-84
2022/06/19 02:51:56;;;;;;;10.13;8.15;;;;;;;20.76;71.95;99314.94;5072513;28;20052;-85
2022/06/19 02:54:24;;;;;;;10.43;8.23;;;;;;;20.74;71.85;99314.56;5072845;28;20049;-85
2022/06/19 02:56:51;;;;;;;10.88;7.90;;;;;;;20.72;71.71;99311.31;5072917;28;20048;-84
2022/06/19 02:59:19;;;;;;;7.85;6.68;;;;;;;20.71;71.48;99321.03;5067917;28;20061;-84
2022/06/19 03:01:47;;;;;;;6.47;5.35;;;;;;;20.70;71.32;99330.75;5073126;28;20051;-85
2022/06/19 03:04:19;;;;;;;6.35;4.95;;;;;;;20.70;70.85;99325.88;5072712;28;20052;-85
2022/06/19 03:06:46;;;;;;;7.03;5.50;;;;;;;20.68;70.56;99326.31;5073109;28;20060;-84
2022/06/19 03:09:14;;;;;;;4.95;4.47;;;;;;;20.66;70.59;99331.56;5084900;28;20044;-85
2022/06/19 03:11:41;;;;;;;6.13;5.53;;;;;;;20.65;70.16;99327.13;5081650;28;20433;-85
2022/06/19 03:14:09;;;;;;;5.60;5.07;;;;;;;20.62;70.17;99336.44;5072895;28;20489;-85
2022/06/19 03:16:36;;;;;;;5.63;4.82;;;;;;;20.63;70.00;99340.88;5072418;28;20063;-85
2022/06/19 03:19:05;;;;;;;6.68;4.88;;;;;;;20.61;69.91;99351.78;5073193;28;20053;-84
2022/06/19 03:21:32;;;;;;;7.03;5.57;;;;;;;20.62;69.98;99344.09;5072368;28;20048;-85
2022/06/19 03:24:00;;;;;;;5.82;5.22;;;;;;;20.60;69.82;99341.72;5070226;28;20045;-85
2022/06/19 03:26:27;;;;;;;5.45;4.40;;;;;;;20.55;69.57;99329.97;5072721;28;20048;-85
2022/06/19 03:28:55;;;;;;;5.65;4.10;;;;;;;20.52;69.31;99333.63;5072460;28;20052;-85
2022/06/19 03:31:24;;;;;;;6.40;4.38;;;;;;;20.49;69.26;99329.56;5072786;28;20044;-85
2022/06/19 03:33:52;;;;;;;6.38;4.15;;;;;;;20.50;69.13;99348.19;5082294;28;20048;-84
2022/06/19 03:36:21;;;;;;;6.03;4.03;;;;;;;20.52;68.87;99359.88;5082987;28;20060;-84
2022/06/19 03:38:49;;;;;;;5.47;4.00;;;;;;;20.45;68.66;99389.00;5072161;28;20492;-84
2022/06/19 03:41:16;;;;;;;6.05;3.70;;;;;;;20.47;68.46;99397.06;5072592;28;20052;-85
2022/06/19 03:43:44;;;;;;;4.60;3.40;;;;;;;20.45;68.11;99382.53;5070204;28;20052;-84
2022/06/19 03:46:13;;;;;;;4.78;3.42;;;;;;;20.39;67.89;99372.84;5072145;28;20044;-85
2022/06/19 03:48:41;;;;;;;;;;;;;;;20.38;67.80;99376.91;5072278;28;20053;-84
2022/06/19 03:51:08;;;;;;;3.42;3.00;;;;;;;20.36;67.93;99384.97;5070305;28;19943;-84
2022/06/19 03:53:37;;;;;;;3.92;3.17;;;;;;;20.38;67.55;99408.00;5063370;28;20421;-85
2022/06/19 03:56:06;;;;;;;4.57;2.95;;;;;;;20.36;67.12;99405.59;5072188;28;20057;-84
2022/06/19 03:58:46;;;;;;;5.70;3.03;;;;;;;20.38;67.03;99393.88;5071688;28;20069;-84
2022/06/19 04:01:14;;;;;;;7.57;3.30;;;;;;;20.42;66.59;99403.16;5072803;28;20045;-84
2022/06/19 04:03:42;;;;;;;3.85;2.80;;;;;;;20.43;66.74;99411.25;5076137;28;20063;-85
2022/06/19 04:06:11;;;;;;;4.72;2.97;;;;;;;20.46;66.69;99421.72;5075489;28;20377;-85
2022/06/19 04:08:40;;;;;;;3.83;3.10;;;;;;;20.48;66.59;99446.78;5073168;28;20041;-84
2022/06/19 04:11:08;;;;;;;;;;;;;;;20.42;65.99;99465.38;5076607;28;20478;-85
2022/06/19 04:13:36;;;;;;;4.93;2.75;;;;;;;20.42;65.47;99465.38;5075677;28;19927;-85
2022/06/19 04:16:04;;;;;;;4.15;2.65;;;;;;;20.36;65.51;99484.78;5075423;28;20056;-85
2022/06/19 04:18:32;;;;;;;3.92;2.55;;;;;;;20.37;65.61;99479.91;5075842;28;20057;-84
2022/06/19 04:21:00;;;;;;;5.30;2.65;;;;;;;20.39;65.25;99483.16;5075046;28;20063;-84
2022/06/19 04:23:28;;;;;;;4.45;2.85;;;;;;;20.34;64.97;99497.72;5068986;28;20079;-85
2022/06/19 04:25:57;;;;;;;4.75;3.05;;;;;;;20.37;64.59;99503.38;5069951;28;20044;-85
2022/06/19 04:28:25;;;;;;;5.90;2.97;;;;;;;20.36;64.32;99503.78;5075690;28;20496;-85
2022/06/19 04:30:53;;;;;;;5.68;2.47;;;;;;;20.33;63.42;99491.25;5075567;28;20489;-86
2022/06/19 04:33:21;;;;;;;3.97;2.58;;;;;;;20.26;62.90;99503.38;5075616;28;20075;-84
2022/06/19 04:35:49;;;;;;;5.30;2.47;;;;;;;20.28;62.33;99477.50;5074495;28;20052;-84
2022/06/19 04:38:17;;;;;;;6.00;2.83;;;;;;;20.19;61.39;99519.53;5074116;28;20416;-85
2022/06/19 04:40:45;;;;;;;7.72;3.03;;;;;;;20.17;61.22;99539.72;5075647;28;20401;-84
2022/06/19 04:43:14;;;;;;;6.35;2.40;;;;;;;20.12;60.85;99557.09;5075566;28;20063;-85
2022/06/19 04:45:41;;;;;;;7.60;3.15;;;;;;;20.04;60.73;99535.69;5075569;28;20059;-85
2022/06/19 04:48:10;;;;;;;7.53;2.47;;;;;;;20.02;60.59;99540.91;5075792;28;20055;-85
2022/06/19 04:50:37;;;;;;;4.70;2.40;;;;;;;19.97;60.25;99549.78;5057276;28;20052;-85
2022/06/19 04:53:04;;;;;;;4.68;2.10;;;;;;;19.95;60.41;99563.50;5067013;28;20495;-84
2022/06/19 04:55:32;;;;;;;6.85;2.45;;;;;;;20.00;59.96;99565.94;5074169;28;20060;-85
2022/06/19 04:58:04;;;;;;;4.78;2.28;;;;;;;19.89;59.95;99565.94;5075148;28;20045;-85
2022/06/19 05:00:32;;;;;;;10.02;2.95;;;;;;;19.89;59.45;99580.06;5074807;28;20056;-85
2022/06/19 05:03:00;;;;;;;6.82;2.40;;;;;;;19.92;60.18;99551.00;5074585;28;20056;-85
2022/06/19 05:05:27;;;;;;;6.13;2.47;;;;;;;19.96;59.66;99553.84;5075150;28;20056;-85
2022/06/19 05:07:54;;;;;;;6.40;2.60;;;;;;;20.10;59.11;99553.06;5072087;28;20443;-84
2022/06/19 05:10:22;;;;;;;5.95;2.65;;;;;;;20.15;58.27;99576.06;5074614;28;20401;-83
2022/06/19 05:12:49;;;;;;;5.53;2.63;;;;;;;20.21;57.90;99563.16;5074143;28;20083;-83
2022/06/19 05:15:17;;;;;;;6.03;2.58;;;;;;;20.26;56.68;99568.44;5074779;28;20055;-83
2022/06/19 05:17:45;;;;;;;7.80;3.03;;;;;;;20.28;55.42;99588.63;5074893;28;20056;-84
2022/06/19 05:20:13;;;;;;;9.57;2.85;;;;;;;20.22;55.14;99573.25;5074379;28;20059;-83
2022/06/19 05:22:41;;;;;;;6.38;2.75;;;;;;;20.21;56.19;99551.03;5070491;28;20056;-84
2022/06/19 05:25:09;;;;;;;7.90;2.63;;;;;;;20.30;55.75;99542.16;5075000;28;20438;-84
2022/06/19 05:27:39;;;;;;;7.55;3.30;;;;;;;20.41;55.41;99531.63;5075350;28;20067;-84
2022/06/19 05:30:08;;;;;;;8.35;2.92;;;;;;;20.47;54.94;99525.19;5074819;28;20059;-84
2022/06/19 05:32:35;;;;;;;6.15;2.53;;;;;;;20.55;55.03;99514.66;5074707;28;20055;-84
2022/06/19 05:35:04;;;;;;;8.18;2.72;;;;;;;20.62;54.35;99520.34;5074729;28;20389;-83
2022/06/19 05:37:32;;;;;;;8.68;2.90;;;;;;;20.71;53.98;99524.78;5072544;28;20052;-85
2022/06/19 05:39:59;;;;;;;7.22;2.45;;;;;;;20.70;53.07;99540.94;5075310;28;20485;-85
2022/06/19 05:42:27;;;;;;;6.50;2.53;;;;;;;20.77;53.20;99543.78;5074198;28;20052;-84
2022/06/19 05:44:54;;;;;;;9.23;2.67;;;;;;;20.79;52.34;99546.19;5074497;28;20056;-84
2022/06/19 05:47:22;;;;;;;10.23;2.90;;;;;;;20.84;52.00;99571.25;5074323;28;20049;-84
2022/06/19 05:49:49;;;;;;;7.30;2.72;;;;;;;20.93;51.38;99568.81;5074058;28;20460;-84
2022/06/19 05:52:24;;;;;;;8.13;2.88;;;;;;;20.98;50.47;99604.41;5068645;28;20465;-84
2022/06/19 05:54:52;;;;;;;8.38;2.70;;;;;;;21.00;50.09;99590.66;5074126;28;20052;-83
2022/06/19 05:57:20;;;;;;;7.30;2.67;;;;;;;21.02;50.19;99549.41;5074063;28;20052;-84
2022/06/19 05:59:48;;;;;;;9.50;2.65;;;;;;;21.05;49.69;99568.38;5074017;28;20064;-84
2022/06/19 06:02:21;;;;;;;9.23;2.78;;;;;;;21.06;49.33;99578.50;5074664;28;20044;-84
2022/06/19 06:04:48;;;;;;;6.32;2.38;;;;;;;20.94;49.36;99580.97;5074161;28;20052;-84
2022/06/19 06:07:16;;;;;;;8.68;2.42;;;;;;;20.96;49.25;99601.19;5069021;28;20375;-84
2022/06/19 06:09:44;;;;;;;7.75;2.50;;;;;;;20.96;49.46;99604.81;5090880;28;20416;-84
2022/06/19 06:12:12;;;;;;;8.95;2.53;;;;;;;20.98;50.07;99598.75;5094390;28;20059;-84
2022/06/19 06:14:39;;;;;;;10.40;3.30;;;;;;;21.08;49.60;99597.91;5094139;28;20052;-84
2022/06/19 06:17:06;;;;;;;9.65;2.70;;;;;;;21.16;49.39;99596.69;5094061;28;20056;-84
2022/06/19 06:19:34;;;;;;;7.55;2.50;;;;;;;21.27;49.32;99599.47;5093663;28;20058;-84
2022/06/19 06:22:03;;;;;;;9.23;2.95;;;;;;;21.41;48.51;99587.31;5083282;28;20147;-84
2022/06/19 06:24:31;;;;;;;8.18;2.70;;;;;;;21.51;48.46;99563.03;5061921;28;20059;-85
2022/06/19 06:27:00;;;;;;;8.55;2.65;;;;;;;21.48;48.36;99516.47;5073414;28;20170;-85
2022/06/19 06:29:27;;;;;;;10.02;2.78;;;;;;;21.29;48.76;99476.06;5072758;28;20048;-84
2022/06/19 06:31:57;;;;;;;9.27;2.72;;;;;;;21.26;48.78;99462.72;5072284;28;20045;-84
2022/06/19 06:34:25;;;;;;;9.55;2.90;;;;;;;21.36;48.37;99509.22;5068452;28;20049;-84
2022/06/19 06:36:52;;;;;;;7.80;2.30;;;;;;;21.48;48.53;99497.47;5067643;28;20067;-84
2022/06/19 06:39:20;;;;;;;8.48;2.83;;;;;;;21.61;52.01;99477.16;5065612;28;20401;-77
2022/06/19 06:41:48;;;;;;;6.30;2.40;;;;;;;21.56;49.28;99483.25;5070949;28;20446;-74
2022/06/19 06:44:17;;;;;;;10.73;3.53;;;;;;;20.67;51.67;99477.50;5069795;28;20516;-75
2022/06/19 06:46:44;;;;;;;12.60;3.28;;;;;;;19.37;54.73;99489.06;5070756;28;20075;-75
2022/06/19 06:49:11;;;;;;;10.23;3.15;;;;;;;19.96;53.44;99480.34;5066694;28;20083;-77
2022/06/19 06:51:39;;;;;;;11.77;3.13;;;;;;;20.25;52.64;99478.31;5068249;28;20063;-77
2022/06/19 06:54:06;;;;;;;9.88;2.92;;;;;;;19.66;55.06;99465.34;5069412;28;20162;-76
2022/06/19 06:56:35;;;;;;;8.88;3.03;;;;;;;19.81;54.03;99466.19;5069935;28;20064;-76
2022/06/19 06:59:03;;;;;;;;;;;;;;;20.13;53.68;99456.13;5072550;28;20060;-75
2022/06/19 07:01:33;;;;;;;8.82;3.30;;;;;;;19.47;54.55;99452.38;5070154;28;19928;-75
2022/06/19 07:04:00;;;;;;;12.98;3.40;;;;;;;19.55;55.23;99460.88;5069087;28;20080;-74
2022/06/19 07:06:29;;;;;;;10.23;3.15;;;;;;;20.27;53.46;99462.56;5070453;28;20044;-75
2022/06/19 07:08:56;;;;;;;10.93;3.42;;;;;;;19.72;55.07;99474.25;5068580;28;20145;-75
2022/06/19 07:11:26;;;;;;;9.23;2.92;;;;;;;20.60;53.07;99488.84;5071163;28;20049;-75
2022/06/19 07:13:53;;;;;;;;;;;;;;;21.07;51.81;99469.69;5069582;28;20079;-74
2022/06/19 07:16:20;;;;;;;9.55;2.78;;;;;;;21.53;50.70;99467.06;5070325;28;19920;-75
2022/06/19 07:18:49;;;;;;;7.03;2.80;;;;;;;21.78;50.15;99466.91;5064847;28;20416;-75
2022/06/19 07:21:16;;;;;;;8.82;3.60;;;;;;;21.14;50.87;99470.88;5070936;28;20099;-75
2022/06/19 07:23:43;;;;;;;11.52;3.35;;;;;;;21.64;50.65;99482.78;5071551;28;20048;-75
2022/06/19 07:26:12;;;;;;;8.50;2.95;;;;;;;21.98;49.45;99507.66;5071297;28;20059;-75
2022/06/19 07:28:40;;;;;;;10.27;2.85;;;;;;;22.43;48.47;99519.09;5072061;28;20052;-75
2022/06/19 07:31:08;;;;;;;10.63;3.28;;;;;;;22.80;48.39;99536.59;5070099;28;20067;-75
2022/06/19 07:33:37;;;;;;;8.07;3.03;;;;;;;23.11;47.22;99531.84;5063922;28;20539;-75
2022/06/19 07:36:06;;;;;;;8.20;2.90;;;;;;;23.46;46.40;99530.59;5070546;28;20060;-75
2022/06/19 07:38:34;;;;;;;7.57;2.88;;;;;;;23.77;45.86;99553.38;5072619;28;20052;-74
2022/06/19 07:41:01;;;;;;;7.20;3.50;;;;;;;23.90;45.62;99577.16;5074509;28;20489;-75
2022/06/19 07:43:28;;;;;;;13.27;3.53;;;;;;;24.09;44.55;99581.38;5075958;28;20550;-74
2022/06/19 07:45:56;;;;;;;7.22;2.88;;;;;;;24.01;45.49;99582.69;5072061;28;20056;-74
2022/06/19 07:51:07;;;;;;;7.25;3.03;;;;;;;24.41;44.36;99617.06;5049487;28;20507;-76
2022/06/19 07:53:35;;;;;;;12.50;4.03;;;;;;;24.44;44.82;99658.09;5075509;28;20052;-75
2022/06/19 07:56:02;;;;;;;9.15;4.05;;;;;;;24.57;44.50;99699.03;5072031;28;20405;-76
2022/06/19 07:58:30;;;;;;;10.35;4.07;;;;;;;25.14;43.36;99711.56;5073859;28;20053;-82
2022/06/19 08:00:57;;;;;;;9.32;3.17;;;;;;;25.73;42.38;99745.13;5071317;28;20500;-84
2022/06/19 08:03:25;;;;;;;11.70;3.63;;;;;;;26.44;40.41;99752.75;5073362;28;20424;-83
2022/06/19 08:05:52;;;;;;;10.10;3.33;;;;;;;27.13;39.34;99744.22;5074860;28;20052;-83
2022/06/19 08:08:24;;;;;;;10.82;3.33;;;;;;;27.77;38.06;99756.09;5073416;28;20048;-83
2022/06/19 08:10:54;;;;;;;7.70;2.90;;;;;;;28.31;37.04;99758.25;5070350;28;20428;-83
2022/06/19 08:13:23;;;;;;;7.10;2.80;;;;;;;28.74;35.43;99776.25;5068361;28;20468;-83
2022/06/19 08:15:51;;;;;;;11.15;3.03;;;;;;;28.38;35.46;99794.47;5072871;28;20049;-82
2022/06/19 08:18:19;;;;;;;7.95;3.08;;;;;;;28.14;34.97;99753.88;5074693;28;20063;-83
2022/06/19 08:20:51;;;;;;;7.43;2.83;;;;;;;28.64;33.76;99740.13;5072485;28;20055;-84
2022/06/19 08:23:19;;;;;;;10.43;3.53;;;;;;;29.37;33.96;99745.97;5075351;28;20488;-83
2022/06/19 08:25:48;;;;;;;9.05;3.35;;;;;;;30.04;31.94;99761.28;5077488;28;20052;-84
2022/06/19 08:28:18;;;;;;;9.98;3.47;;;;;;;30.78;30.63;99761.81;5076658;28;20057;-83
2022/06/19 08:30:46;;;;;;;6.72;2.50;;;;;;;31.28;29.79;99714.53;5075913;28;20412;-83
2022/06/19 08:33:13;;;;;;;7.10;2.85;;;;;;;31.99;28.92;99727.13;5062220;28;20060;-83
2022/06/19 08:35:44;;;;;;;8.93;3.45;;;;;;;32.59;27.62;99745.81;5072413;28;20441;-84
2022/06/19 08:38:17;;;;;;;8.57;3.15;;;;;;;32.95;26.93;99749.84;5078653;28;20048;-83
2022/06/19 08:41:32;;;;;;;9.35;3.38;;;;;;;33.72;25.93;99749.25;5095391;28;20063;-83
2022/06/19 08:44:27;;;;;;;9.18;3.28;;;;;;;34.37;25.29;99745.84;5004675;28;20157;-83
2022/06/19 08:47:09;;;;;;;8.25;3.47;;;;;;;34.58;24.48;99762.00;5007125;28;20121;-81
2022/06/19 08:49:51;;;;;;;8.68;2.90;;;;;;;34.88;24.16;99743.84;5039504;28;20057;-81
2022/06/19 08:52:33;;;;;;;8.48;2.92;;;;;;;35.23;24.33;99734.41;5055289;28;20060;-82
2022/06/19 08:55:10;;;;;;;11.68;3.58;;;;;;;35.66;24.05;99726.88;5054758;28;20061;-81
2022/06/19 08:57:45;;;;;;;9.63;2.88;;;;;;;35.87;22.72;99747.16;5075059;28;20063;-82
2022/06/19 09:00:19;;;;;;;7.78;3.08;;;;;;;36.62;22.65;99739.53;5074237;28;20057;-82
2022/06/19 09:02:56;;;;;;;7.85;2.90;;;;;;;37.25;21.91;99735.03;5063896;28;20057;-82
2022/06/19 09:05:44;;;;;;;8.63;3.47;;;;;;;37.32;21.51;99757.78;5072405;28;20053;-83
2022/06/19 09:08:34;;;;;;;5.88;2.70;;;;;;;37.16;21.58;99773.78;5075063;28;20075;-83
2022/06/19 09:11:14;;;;;;;8.80;3.13;;;;;;;37.28;21.79;99774.66;5062437;28;20064;-83
2022/06/19 09:13:54;;;;;;;8.00;3.50;;;;;;;37.22;21.22;99762.22;5091361;28;20059;-83
2022/06/19 09:16:31;;;;;;;6.05;2.95;;;;;;;37.94;20.61;99755.19;5090296;28;20049;-83
2022/06/19 09:19:06;;;;;;;8.27;3.60;;;;;;;38.37;20.81;99764.59;5065912;28;20405;-83
2022/06/19 09:21:44;;;;;;;7.05;3.22;;;;;;;38.89;20.11;99769.19;5074150;28;20048;-83
2022/06/19 09:24:31;;;;;;;9.10;3.38;;;;;;;39.49;19.58;99744.75;5074245;28;20059;-83
2022/06/19 09:27:01;;;;;;;7.28;3.35;;;;;;;40.17;19.22;99757.75;5072067;28;20057;-83
2022/06/19 09:29:34;;;;;;;7.72;3.38;;;;;;;40.97;17.88;99763.81;5074717;28;20048;-84
2022/06/19 09:32:11;;;;;;;7.78;3.20;;;;;;;41.29;17.83;99742.84;5074892;28;20049;-83
2022/06/19 09:34:45;;;;;;;8.05;3.50;;;;;;;40.55;17.60;99730.97;5073984;28;20493;-82
2022/06/19 09:37:18;;;;;;;8.10;3.00;;;;;;;41.42;17.36;99712.94;5071698;28;20045;-81
2022/06/19 09:39:50;;;;;;;7.93;3.35;;;;;;;40.78;17.62;99708.22;5077777;28;20049;-81
2022/06/19 09:42:22;;;;;;;7.82;3.30;;;;;;;39.78;18.43;99714.16;5074138;28;20055;-83
2022/06/19 09:44:56;;;;;;;6.68;2.78;;;;;;;38.63;19.63;99725.75;5074717;28;20385;-83
2022/06/19 09:47:32;;;;;;;7.63;3.05;;;;;;;37.33;20.69;99736.13;5071568;28;20052;-83
2022/06/19 09:50:05;;;;;;;9.70;3.60;;;;;;;36.26;21.37;99724.41;5067541;28;20048;-83
2022/06/19 09:52:38;;;;;;;10.85;3.13;;;;;;;35.86;22.32;99716.56;5073941;28;20071;-83
2022/06/19 09:55:12;;;;;;;7.28;2.95;;;;;;;35.08;22.53;99703.38;5066808;28;20505;-82
2022/06/19 09:57:47;;;;;;;9.30;2.97;;;;;;;34.25;24.57;99721.72;5072870;28;20048;-82
2022/06/19 10:00:21;;;;;;;10.93;3.58;;;;;;;33.50;25.03;99714.91;5055317;28;20072;-83
2022/06/19 10:02:56;;;;;;;6.68;3.30;;;;;;;33.40;24.92;99701.81;5072118;28;20048;-83
2022/06/19 10:05:33;;;;;;;6.72;2.58;;;;;;;33.20;25.52;99684.31;5075282;28;20052;-83
2022/06/19 10:08:07;;;;;;;8.95;3.22;;;;;;;32.78;25.99;99696.69;5074466;28;20532;-83
2022/06/19 10:10:41;;;;;;;7.07;3.10;;;;;;;32.25;27.02;99701.63;5072530;28;20492;-82
2022/06/19 10:13:16;;;;;;;10.32;3.65;;;;;;;32.00;27.05;99702.78;5070949;28;20063;-82
2022/06/19 10:15:45;;;;;;;10.95;3.88;;;;;;;31.88;27.72;99692.25;5068956;28;20055;-82
2022/06/19 10:18:17;;;;;;;8.15;3.00;;;;;;;31.82;28.04;99694.97;5069294;28;20048;-83
2022/06/19 10:20:54;;;;;;;9.77;3.60;;;;;;;32.16;27.50;99695.91;5074177;28;20052;-83
2022/06/19 10:23:35;;;;;;;8.48;3.20;;;;;;;32.12;27.58;99677.97;5069885;28;20123;-81
2022/06/19 10:26:16;;;;;;;9.57;3.78;;;;;;;32.39;27.28;99670.56;5073689;28;20059;-82
2022/06/19 10:28:58;;;;;;;9.68;3.47;;;;;;;32.02;27.38;99659.09;5072933;28;20056;-82
2022/06/19 10:31:47;;;;;;;10.18;3.53;;;;;;;32.06;27.67;99645.34;5070149;28;20373;-81
2022/06/19 10:34:23;;;;;;;7.15;3.35;;;;;;;31.60;28.17;99633.84;5070516;28;20052;-82
2022/06/19 10:36:59;;;;;;;8.43;3.45;;;;;;;31.75;28.47;99626.97;5072582;28;20052;-79
2022/06/19 10:39:41;;;;;;;11.57;3.70;;;;;;;32.06;28.64;99611.56;5069726;28;20067;-81
2022/06/19 10:42:19;;;;;;;9.63;3.55;;;;;;;31.77;28.72;99629.34;5067287;28;20133;-81
2022/06/19 10:45:09;;;;;;;10.82;3.78;;;;;;;31.53;29.61;99615.63;5071106;28;20044;-81
2022/06/19 10:47:57;;;;;;;6.70;2.83;;;;;;;31.81;29.24;99629.97;5066524;28;20389;-82
2022/06/19 10:50:36;;;;;;;11.63;3.85;;;;;;;30.81;29.95;99605.59;5069480;28;20053;-81
2022/06/19 10:53:17;;;;;;;10.88;3.70;;;;;;;29.12;33.13;99546.06;5053332;28;20053;-81
2022/06/19 10:55:52;;;;;;;8.93;3.55;;;;;;;28.24;35.14;99486.41;5058661;28;20045;-80
2022/06/19 10:58:22;;;;;;;7.43;3.25;;;;;;;28.74;35.63;99435.97;5072152;28;20055;-81
2022/06/19 11:00:52;;;;;;;10.52;3.33;;;;;;;29.18;34.90;99420.09;5072686;28;20056;-81
2022/06/19 11:06:40;;;;;;;10.13;3.17;;;;;;;30.09;34.27;99467.72;5072746;28;20492;-81
2022/06/19 11:09:14;;;;;;;8.20;2.83;;;;;;;31.47;32.09;99473.63;5073320;28;20052;-81
2022/06/19 11:11:45;;;;;;;9.98;3.25;;;;;;;32.72;29.61;99458.00;5072044;28;20392;-81
2022/06/19 11:14:14;;;;;;;10.55;3.65;;;;;;;33.60;28.17;99470.22;5067333;28;20489;-81
2022/06/19 11:16:54;;;;;;;9.38;3.45;;;;;;;34.42;26.64;99476.25;5067828;28;20057;-82
2022/06/19 11:19:40;;;;;;;7.97;3.28;;;;;;;34.21;26.81;99494.81;5072462;28;20059;-82
2022/06/19 11:22:27;;;;;;;8.32;3.42;;;;;;;33.60;28.05;99498.25;5072354;28;20052;-81
2022/06/19 11:24:55;;;;;;;9.13;3.70;;;;;;;33.18;27.86;99497.25;5061580;28;20051;-82
2022/06/19 11:27:26;;;;;;;9.98;3.70;;;;;;;33.22;27.70;99515.16;5072394;28;20052;-81
2022/06/19 11:29:56;;;;;;;8.70;3.65;;;;;;;33.43;28.06;99539.19;5072576;28;20060;-81
2022/06/19 11:32:25;;;;;;;9.32;3.92;;;;;;;34.36;27.61;99550.53;5072427;28;20064;-81
2022/06/19 11:34:59;;;;;;;7.20;2.92;;;;;;;36.11;25.24;99555.53;5070296;28;20041;-81
2022/06/19 11:37:30;;;;;;;11.57;4.07;;;;;;;37.20;23.27;99581.88;5073788;28;20045;-82
2022/06/19 11:40:14;;;;;;;8.85;3.40;;;;;;;38.39;22.36;99598.25;5072583;28;20052;-82
2022/06/19 11:42:48;;;;;;;7.05;3.20;;;;;;;38.66;21.28;99592.91;5068474;28;20055;-81
2022/06/19 11:45:26;;;;;;;8.68;3.72;;;;;;;38.27;21.54;99596.66;5072668;28;20465;-82
2022/06/19 11:48:03;;;;;;;10.23;3.83;;;;;;;39.06;21.08;99588.63;5073377;28;20095;-82
2022/06/19 11:50:45;;;;;;;10.85;3.92;;;;;;;40.20;19.77;99571.25;5072587;28;20053;-82
2022/06/19 11:53:17;;;;;;;9.02;3.63;;;;;;;39.89;19.88;99568.31;5068719;28;20048;-82
2022/06/19 11:55:48;;;;;;;7.72;3.00;;;;;;;39.72;20.47;99562.56;5070157;28;20409;-81